Time;durP1;ratioP1;P1;durP2;ratioP2;P2;SDS_P1;SDS_P2;PMS_P1;PMS_P2;Temp;Humidity;BMP_temperature;BMP_pressure;BME280_temperature;BME280_humidity;BME280_pressure;Samples;Min_cycle;Max_cycle;Signal;HPM_P1;HPM_P2
2022/05/11 00:00:49;;;;;;;0.65;0.60;;;;;;;23.67;60.81;100471.38;5071040;28;20379;-63
2022/05/11 00:03:15;;;;;;;0.50;0.40;;;;;;;23.65;60.71;100481.75;5073815;28;20032;-63
2022/05/11 00:05:40;;;;;;;0.70;0.70;;;;;;;23.67;61.07;100468.63;5076310;28;20016;-63
2022/05/11 00:08:06;;;;;;;0.75;0.40;;;;;;;23.65;61.27;100459.78;5076335;28;20024;-63
2022/05/11 00:10:33;;;;;;;1.42;0.82;;;;;;;23.65;60.84;100454.28;5076344;28;20519;-63
2022/05/11 00:12:59;;;;;;;2.00;0.50;;;;;;;23.65;61.13;100434.25;5076160;28;20468;-62
2022/05/11 00:15:25;;;;;;;1.00;0.52;;;;;;;23.60;61.06;100423.94;5075885;28;20029;-63
2022/05/11 00:17:51;;;;;;;0.82;0.50;;;;;;;23.62;60.96;100416.31;5076163;28;20523;-62
2022/05/11 00:20:17;;;;;;;0.50;0.50;;;;;;;23.61;61.04;100413.78;5075878;28;20107;-63
2022/05/11 00:22:43;;;;;;;0.68;0.47;;;;;;;23.60;61.00;100396.47;5075895;28;20119;-63
2022/05/11 00:25:11;;;;;;;1.20;0.60;;;;;;;23.64;60.56;100403.22;5076605;28;20048;-64
2022/05/11 00:27:37;;;;;;;1.48;0.60;;;;;;;23.63;61.27;100403.44;5075583;28;20051;-63
2022/05/11 00:30:03;;;;;;;1.15;0.60;;;;;;;23.63;60.96;100407.03;5075883;28;20028;-62
2022/05/11 00:32:28;;;;;;;2.88;0.55;;;;;;;23.63;61.05;100434.47;5075551;28;20028;-62
2022/05/11 00:34:54;;;;;;;0.90;0.60;;;;;;;23.62;60.81;100438.28;5075643;28;20364;-63
2022/05/11 00:37:20;;;;;;;0.50;0.45;;;;;;;23.62;60.57;100438.28;5076072;28;20024;-63
2022/05/11 00:39:45;;;;;;;0.80;0.68;;;;;;;23.61;60.99;100436.59;5076323;28;20029;-63
2022/05/11 00:42:11;;;;;;;1.05;0.47;;;;;;;23.60;60.64;100436.81;5075626;28;20028;-63
2022/05/11 00:44:36;;;;;;;1.25;0.73;;;;;;;23.61;60.71;100433.84;5075476;28;20455;-63
2022/05/11 00:47:11;;;;;;;1.77;0.65;;;;;;;23.60;60.43;100432.16;5074177;28;20036;-63
2022/05/11 00:49:43;;;;;;;1.08;0.50;;;;;;;23.59;60.74;100433.22;5075352;28;20032;-62
2022/05/11 00:52:18;;;;;;;1.27;0.52;;;;;;;23.60;61.06;100445.88;5075475;28;20056;-64
2022/05/11 00:54:59;;;;;;;1.55;0.82;;;;;;;23.60;60.92;100443.13;5075706;28;20076;-63
2022/05/11 00:57:34;;;;;;;2.67;0.55;;;;;;;23.59;60.85;100448.84;5075067;28;20040;-63
2022/05/11 01:00:01;;;;;;;0.70;0.50;;;;;;;23.61;61.11;100446.72;5075310;28;20026;-63
2022/05/11 01:02:27;;;;;;;0.30;0.30;;;;;;;23.58;61.06;100458.97;5075079;28;20301;-62
2022/05/11 01:04:59;;;;;;;1.17;0.40;;;;;;;23.59;60.88;100455.16;5075295;28;20017;-63
2022/05/11 01:07:26;;;;;;;0.95;0.63;;;;;;;23.58;61.28;100458.13;5073927;28;20383;-63
2022/05/11 01:09:51;;;;;;;1.27;0.55;;;;;;;23.60;61.06;100456.00;5075949;28;20023;-63
2022/05/11 01:12:19;;;;;;;1.17;0.60;;;;;;;23.56;60.97;100461.06;5075079;28;20025;-62
2022/05/11 01:14:49;;;;;;;1.17;0.60;;;;;;;23.56;60.81;100452.81;5076292;28;20119;-63
2022/05/11 01:17:14;;;;;;;0.60;0.52;;;;;;;23.57;60.85;100454.53;5074929;28;20089;-63
2022/05/11 01:19:44;;;;;;;0.50;0.43;;;;;;;23.57;60.83;100446.31;5074878;28;20469;-63
2022/05/11 01:22:27;;;;;;;0.47;0.40;;;;;;;23.56;61.18;100450.09;5073819;28;20383;-64
2022/05/11 01:24:52;;;;;;;0.40;0.40;;;;;;;23.56;61.27;100444.59;5075248;28;20027;-63
2022/05/11 01:27:45;;;;;;;0.40;0.40;;;;;;;23.57;61.37;100457.28;5074546;28;20028;-63
2022/05/11 01:30:22;;;;;;;0.68;0.50;;;;;;;23.56;60.49;100450.09;5074650;28;20460;-64
2022/05/11 01:32:53;;;;;;;0.57;0.35;;;;;;;23.56;60.34;100443.75;5075030;28;20028;-62
2022/05/11 01:35:33;;;;;;;0.30;0.30;;;;;;;23.52;61.07;100454.31;5074480;28;20495;-63
2022/05/11 01:38:20;;;;;;;1.27;0.50;;;;;;;23.56;61.00;100447.34;5075007;28;20062;-62
2022/05/11 01:40:45;;;;;;;0.28;0.28;;;;;;;23.54;60.50;100441.22;5074552;28;20052;-63
2022/05/11 01:43:25;;;;;;;0.40;0.32;;;;;;;23.54;60.67;100446.72;5073221;28;20052;-62
2022/05/11 01:45:51;;;;;;;0.40;0.40;;;;;;;23.54;61.02;100435.75;5074508;28;20021;-63
2022/05/11 01:48:17;;;;;;;0.25;0.22;;;;;;;23.56;60.94;100439.09;5074369;28;20087;-63
2022/05/11 01:50:43;;;;;;;0.77;0.32;;;;;;;23.54;61.01;100432.16;5074270;28;20604;-63
2022/05/11 01:53:09;;;;;;;0.52;0.52;;;;;;;23.53;60.88;100439.53;5074984;28;20028;-63
2022/05/11 01:55:35;;;;;;;0.40;0.30;;;;;;;23.54;60.55;100430.25;5072813;28;20066;-63
2022/05/11 01:58:01;;;;;;;0.30;0.30;;;;;;;23.53;60.69;100428.56;5075677;28;20060;-63
2022/05/11 02:00:26;;;;;;;0.85;0.35;;;;;;;23.52;61.43;100424.16;5073898;28;20025;-63
2022/05/11 02:02:52;;;;;;;0.75;0.22;;;;;;;23.53;60.89;100416.75;5074158;28;20031;-63
2022/05/11 02:08:01;;;;;;;0.30;0.30;;;;;;;23.53;60.63;100439.53;5074701;28;20074;-62
2022/05/11 02:10:27;;;;;;;0.35;0.35;;;;;;;23.50;61.28;100439.94;5073768;28;20036;-63
2022/05/11 02:12:55;;;;;;;0.30;0.28;;;;;;;23.51;61.00;100438.06;5073983;28;20028;-63
2022/05/11 02:15:21;;;;;;;0.38;0.30;;;;;;;23.49;61.37;100440.16;5073650;28;20031;-62
2022/05/11 02:17:47;;;;;;;0.47;0.45;;;;;;;23.49;61.10;100432.78;5073773;28;20028;-63
2022/05/11 02:20:14;;;;;;;0.40;0.20;;;;;;;23.51;60.48;100438.88;5072620;28;20456;-63
2022/05/11 02:22:41;;;;;;;0.30;0.30;;;;;;;23.50;60.74;100439.94;5073673;28;20020;-63
2022/05/11 02:25:08;;;;;;;0.30;0.20;;;;;;;23.50;61.03;100439.94;5073008;28;20024;-63
2022/05/11 02:27:34;;;;;;;0.20;0.10;;;;;;;23.51;60.59;100447.13;5073586;28;20094;-63
2022/05/11 02:30:00;;;;;;;0.57;0.20;;;;;;;23.52;60.33;100442.50;5073621;28;20032;-63
2022/05/11 02:32:26;;;;;;;0.63;0.20;;;;;;;23.49;61.30;100449.25;5073266;28;20479;-63
2022/05/11 02:37:35;;;;;;;0.73;0.30;;;;;;;23.51;60.85;100436.16;5074760;28;20039;-60
2022/05/11 02:40:01;;;;;;;0.40;0.17;;;;;;;23.50;60.84;100444.59;5074578;28;20025;-63
2022/05/11 02:42:26;;;;;;;0.40;0.30;;;;;;;23.49;60.98;100435.53;5073414;28;20066;-63
2022/05/11 02:44:52;;;;;;;0.20;0.20;;;;;;;23.48;61.10;100433.00;5073327;28;20016;-63
2022/05/11 02:47:18;;;;;;;0.50;0.25;;;;;;;23.50;60.77;100445.44;5071804;28;20025;-63
2022/05/11 02:49:45;;;;;;;0.20;0.20;;;;;;;23.46;61.15;100441.44;5073789;28;20029;-62
2022/05/11 02:52:10;;;;;;;0.28;0.17;;;;;;;23.50;60.59;100447.34;5073300;28;20025;-63
2022/05/11 02:54:35;;;;;;;0.40;0.30;;;;;;;23.48;60.64;100458.53;5071630;28;20021;-63
2022/05/11 02:57:01;;;;;;;0.40;0.30;;;;;;;23.48;61.30;100442.06;5073048;28;20025;-62
2022/05/11 02:59:26;;;;;;;0.28;0.28;;;;;;;23.50;61.20;100439.94;5072793;28;20024;-63
2022/05/11 03:01:51;;;;;;;0.50;0.20;;;;;;;23.46;61.14;100378.34;5071761;28;20027;-62
2022/05/11 03:04:18;;;;;;;0.20;0.20;;;;;;;23.48;62.00;100386.34;5073089;28;20046;-63
2022/05/11 03:06:47;;;;;;;0.98;0.13;;;;;;;23.51;62.88;100372.19;5073746;28;20028;-63
2022/05/11 03:09:16;;;;;;;0.75;0.25;;;;;;;23.52;62.31;100448.00;5072795;28;20024;-64
2022/05/11 03:11:43;;;;;;;0.43;0.25;;;;;;;23.47;61.99;100431.31;5072782;28;20107;-63
2022/05/11 03:14:09;;;;;;;1.45;0.30;;;;;;;23.48;62.36;100425.59;5072709;28;20478;-63
2022/05/11 03:16:35;;;;;;;0.25;0.15;;;;;;;23.49;62.11;100421.81;5073722;28;20029;-63
2022/05/11 03:19:01;;;;;;;0.20;0.10;;;;;;;23.50;62.02;100415.25;5073374;28;20025;-63
2022/05/11 03:21:27;;;;;;;0.70;0.40;;;;;;;23.49;61.66;100427.28;5071218;28;20052;-64
2022/05/11 03:23:53;;;;;;;0.98;0.30;;;;;;;23.48;62.07;100425.59;5072746;28;20098;-62
2022/05/11 03:26:18;;;;;;;0.82;0.30;;;;;;;23.48;62.71;100428.34;5072480;28;20452;-63
2022/05/11 03:28:43;;;;;;;0.32;0.22;;;;;;;23.48;62.62;100431.09;5072391;28;20056;-63
2022/05/11 03:31:08;;;;;;;0.95;0.20;;;;;;;23.50;62.14;100428.97;5072728;28;20030;-63
2022/05/11 03:36:17;;;;;;;0.30;0.20;;;;;;;23.49;62.24;100421.81;5072473;28;20031;-63
2022/05/11 03:38:43;;;;;;;0.32;0.22;;;;;;;23.50;63.26;100428.97;5072507;28;20395;-63
2022/05/11 03:41:08;;;;;;;1.02;0.35;;;;;;;23.50;63.25;100431.72;5072549;28;20024;-63
2022/05/11 03:43:34;;;;;;;0.75;0.30;;;;;;;23.52;63.11;100426.03;5072662;28;20125;-63
2022/05/11 03:46:02;;;;;;;0.43;0.28;;;;;;;23.49;62.96;100443.75;5073104;28;20017;-63
2022/05/11 03:48:27;;;;;;;0.70;0.20;;;;;;;23.51;63.73;100441.63;5072235;28;20024;-62
2022/05/11 03:50:53;;;;;;;0.40;0.10;;;;;;;23.53;62.91;100444.19;5075028;28;20153;-62
2022/05/11 03:53:18;;;;;;;1.05;0.10;;;;;;;23.51;63.09;100441.63;5072317;28;20028;-63
2022/05/11 03:55:43;;;;;;;0.47;0.30;;;;;;;23.50;63.30;100445.44;5072253;28;20070;-62
2022/05/11 03:58:09;;;;;;;0.20;0.20;;;;;;;23.53;63.32;100436.81;5072347;28;20111;-63
2022/05/11 04:00:34;;;;;;;0.60;0.17;;;;;;;23.53;63.08;100450.53;5072944;28;20024;-62
2022/05/11 04:02:59;;;;;;;0.43;0.10;;;;;;;23.65;63.41;100435.09;5072330;28;20028;-63
2022/05/11 04:05:25;;;;;;;0.20;0.20;;;;;;;23.73;62.91;100438.66;5072032;28;20039;-63
2022/05/11 04:07:50;;;;;;;0.47;0.13;;;;;;;23.83;63.26;100447.28;5072300;28;20020;-63
2022/05/11 04:10:17;;;;;;;0.30;0.20;;;;;;;23.88;63.56;100447.47;5072126;28;20375;-63
2022/05/11 04:12:43;;;;;;;0.70;0.20;;;;;;;23.92;63.56;100444.06;5072285;28;20025;-63
2022/05/11 04:15:10;;;;;;;0.57;0.20;;;;;;;23.97;62.89;100425.03;5072166;28;20028;-63
2022/05/11 04:17:35;;;;;;;0.68;0.20;;;;;;;23.99;63.88;100438.53;5072313;28;20531;-63
2022/05/11 04:20:02;;;;;;;0.90;0.30;;;;;;;24.01;63.86;100442.75;5072184;28;20036;-63
2022/05/11 04:22:27;;;;;;;1.23;0.30;;;;;;;24.04;64.66;100449.75;5071900;28;20055;-63
2022/05/11 04:24:52;;;;;;;0.10;0.10;;;;;;;24.06;64.51;100455.84;5072141;28;20412;-63
2022/05/11 04:27:18;;;;;;;0.32;0.10;;;;;;;24.10;64.23;100459.00;5071943;28;20525;-63
2022/05/11 04:29:43;;;;;;;0.05;0.05;;;;;;;24.09;65.19;100451.81;5072011;28;20039;-63
2022/05/11 04:32:10;;;;;;;0.10;0.10;;;;;;;24.14;65.51;100458.34;5072288;28;20056;-64
2022/05/11 04:34:40;;;;;;;1.17;0.20;;;;;;;24.17;65.67;100459.78;5072043;28;20041;-63
2022/05/11 04:37:05;;;;;;;0.45;0.10;;;;;;;24.17;65.24;100449.66;5071899;28;20039;-63
2022/05/11 04:39:31;;;;;;;0.20;0.00;;;;;;;24.19;65.58;100460.44;5072203;28;20107;-63
2022/05/11 04:41:57;;;;;;;0.65;0.20;;;;;;;24.20;65.73;100457.47;5071940;28;20063;-63
2022/05/11 04:44:22;;;;;;;0.55;0.10;;;;;;;24.20;65.94;100457.47;5071664;28;20020;-63
2022/05/11 04:46:47;;;;;;;0.10;0.10;;;;;;;24.20;65.86;100451.97;5071907;28;20060;-63
2022/05/11 04:49:23;;;;;;;0.20;0.10;;;;;;;24.22;65.74;100460.84;5074315;28;20306;-62
2022/05/11 04:51:52;;;;;;;0.93;0.55;;;;;;;24.23;65.88;100456.19;5075450;28;20028;-62
2022/05/11 04:54:18;;;;;;;0.35;0.10;;;;;;;24.23;66.04;100457.03;5076090;28;20098;-64
2022/05/11 04:56:43;;;;;;;0.25;0.20;;;;;;;24.22;66.30;100449.00;5075314;28;20495;-63
2022/05/11 04:59:09;;;;;;;0.08;0.08;;;;;;;24.26;66.12;100456.59;5075325;28;20033;-64
2022/05/11 05:01:35;;;;;;;0.22;0.20;;;;;;;24.26;66.23;100470.31;5075475;28;20146;-63
2022/05/11 05:04:01;;;;;;;0.50;0.30;;;;;;;24.28;66.37;100454.47;5075250;28;20017;-63
2022/05/11 05:06:28;;;;;;;0.43;0.10;;;;;;;24.29;66.50;100464.41;5073670;28;20031;-64
2022/05/11 05:08:54;;;;;;;0.52;0.40;;;;;;;24.30;66.86;100473.50;5075559;28;20491;-61
2022/05/11 05:11:20;;;;;;;0.30;0.10;;;;;;;24.30;66.03;100471.59;5075381;28;20024;-63
2022/05/11 05:13:45;;;;;;;0.30;0.10;;;;;;;24.30;66.91;100474.34;5076429;28;20039;-60
2022/05/11 05:16:11;;;;;;;0.30;0.10;;;;;;;24.31;66.52;100469.69;5075721;28;20345;-64
2022/05/11 05:18:36;;;;;;;0.43;0.10;;;;;;;24.32;67.06;100467.78;5074919;28;20025;-63
2022/05/11 05:21:01;;;;;;;0.55;0.20;;;;;;;24.36;66.64;100467.16;5074973;28;20032;-63
2022/05/11 05:23:27;;;;;;;0.30;0.20;;;;;;;24.36;66.59;100460.81;5074690;28;20365;-63
2022/05/11 05:25:52;;;;;;;0.40;0.20;;;;;;;24.36;66.92;100477.28;5074043;28;20017;-64
2022/05/11 05:31:08;;;;;;;0.82;0.20;;;;;;;24.40;66.34;100470.28;5074901;28;20043;-63
2022/05/11 05:33:35;;;;;;;0.40;0.20;;;;;;;24.40;66.98;100462.03;5074605;28;20034;-63
2022/05/11 05:36:02;;;;;;;0.38;0.13;;;;;;;24.38;66.74;100475.16;5074609;28;20107;-64
2022/05/11 05:38:28;;;;;;;0.10;0.10;;;;;;;24.40;66.80;100475.78;5073775;28;20071;-63
2022/05/11 05:40:54;;;;;;;0.40;0.10;;;;;;;24.40;66.83;100478.53;5074655;28;20060;-64
2022/05/11 05:43:20;;;;;;;0.82;0.20;;;;;;;24.41;67.37;100474.72;5074438;28;20027;-63
2022/05/11 05:45:48;;;;;;;0.20;0.20;;;;;;;24.41;66.49;100480.22;5074500;28;20031;-64
2022/05/11 05:48:13;;;;;;;0.40;0.20;;;;;;;24.42;66.82;100481.91;5074401;28;20028;-65
2022/05/11 05:50:38;;;;;;;0.40;0.22;;;;;;;24.43;67.29;100489.06;5072964;28;20073;-64
2022/05/11 05:53:04;;;;;;;0.30;0.30;;;;;;;24.43;66.93;100489.06;5075559;28;20111;-63
2022/05/11 05:55:29;;;;;;;0.25;0.13;;;;;;;24.44;66.80;100490.75;5074124;28;20020;-63
2022/05/11 05:57:54;;;;;;;0.10;0.10;;;;;;;24.45;67.23;100497.94;5074564;28;20029;-63
2022/05/11 06:00:20;;;;;;;0.40;0.10;;;;;;;24.44;67.09;100502.59;5073084;28;20028;-64
2022/05/11 06:02:45;;;;;;;0.22;0.10;;;;;;;24.47;67.33;100501.31;5074425;28;20345;-63
2022/05/11 06:05:13;;;;;;;0.85;0.10;;;;;;;24.44;67.11;100485.25;5074408;28;20020;-64
2022/05/11 06:07:38;;;;;;;0.28;0.10;;;;;;;24.47;67.04;100495.81;5072989;28;20553;-63
2022/05/11 06:10:04;;;;;;;0.47;0.20;;;;;;;24.45;67.08;100490.53;5072809;28;20056;-63
2022/05/11 06:12:29;;;;;;;0.50;0.10;;;;;;;24.46;67.26;100494.13;5073826;28;20016;-63
2022/05/11 06:14:54;;;;;;;0.30;0.13;;;;;;;24.47;67.28;100506.78;5074138;28;20142;-63
2022/05/11 06:17:25;;;;;;;0.20;0.13;;;;;;;24.47;67.35;100517.78;5074283;28;20491;-64
2022/05/11 06:19:52;;;;;;;0.30;0.10;;;;;;;24.48;67.66;100505.72;5073834;28;20028;-63
2022/05/11 06:22:18;;;;;;;0.15;0.10;;;;;;;24.49;66.84;100510.16;5072406;28;20020;-63
2022/05/11 06:24:43;;;;;;;0.10;0.10;;;;;;;24.48;67.59;100509.31;5078523;28;20051;-64
2022/05/11 06:27:21;;;;;;;0.25;0.17;;;;;;;24.49;67.56;100515.66;5073534;28;20032;-64
2022/05/11 06:29:51;;;;;;;0.10;0.05;;;;;;;24.50;67.07;100507.19;5072291;28;20491;-63
2022/05/11 06:32:19;;;;;;;0.10;0.10;;;;;;;24.51;68.02;100508.88;5073642;28;20028;-64
2022/05/11 06:34:44;;;;;;;0.17;0.17;;;;;;;24.50;67.28;100517.34;5073674;28;20060;-63
2022/05/11 06:37:09;;;;;;;0.40;0.15;;;;;;;24.51;67.38;100516.28;5073397;28;20089;-64
2022/05/11 06:39:36;;;;;;;0.10;0.10;;;;;;;24.51;67.47;100508.03;5073295;28;20468;-63
2022/05/11 06:42:02;;;;;;;1.35;0.20;;;;;;;24.53;67.75;100519.69;5073349;28;20476;-64
2022/05/11 06:44:27;;;;;;;0.20;0.20;;;;;;;24.54;67.50;100513.13;5073767;28;20048;-64
2022/05/11 06:46:53;;;;;;;0.52;0.20;;;;;;;24.53;67.45;100517.78;5073298;28;20052;-63
2022/05/11 06:49:19;;;;;;;0.30;0.10;;;;;;;24.54;67.71;100513.13;5073107;28;20472;-64
2022/05/11 06:51:44;;;;;;;0.32;0.10;;;;;;;24.54;67.68;100516.69;5073188;28;20025;-63
2022/05/11 06:59:38;;;;;;;0.10;0.10;;;;;;;24.54;67.03;100508.47;5073210;28;20033;-64
2022/05/11 07:02:04;;;;;;;0.10;0.10;;;;;;;24.55;67.59;100523.03;5073032;28;20016;-64
2022/05/11 07:04:33;;;;;;;0.45;0.20;;;;;;;24.57;67.32;100519.00;5074818;28;20024;-61
2022/05/11 07:06:59;;;;;;;1.17;0.20;;;;;;;24.55;67.06;100517.53;5073524;28;20105;-63
2022/05/11 07:09:27;;;;;;;0.30;0.20;;;;;;;24.55;67.87;100520.28;5072789;28;20032;-64
2022/05/11 07:14:38;;;;;;;0.40;0.30;;;;;;;24.56;67.17;100514.56;5073901;28;20027;-64
2022/05/11 07:17:04;;;;;;;0.50;0.30;;;;;;;24.56;67.71;100517.31;5072829;28;20025;-64
2022/05/11 07:19:29;;;;;;;0.20;0.20;;;;;;;24.56;67.52;100511.00;5072536;28;20032;-63
2022/05/11 07:21:54;;;;;;;0.75;0.22;;;;;;;24.57;67.66;100507.16;5073166;28;20475;-63
2022/05/11 07:24:20;;;;;;;0.60;0.50;;;;;;;24.58;67.52;100517.09;5072599;28;20118;-64
2022/05/11 07:26:46;;;;;;;0.20;0.20;;;;;;;24.56;67.77;100511.00;5073156;28;20031;-64
2022/05/11 07:29:12;;;;;;;0.10;0.10;;;;;;;24.57;67.58;100507.16;5072534;28;20045;-65
2022/05/11 07:31:38;;;;;;;0.85;0.40;;;;;;;24.57;67.75;100512.66;5072605;28;20031;-63
2022/05/11 07:34:03;;;;;;;0.43;0.20;;;;;;;24.59;67.74;100510.53;5071244;28;20119;-63
2022/05/11 07:36:29;;;;;;;0.60;0.28;;;;;;;24.59;67.14;100516.88;5072687;28;20028;-65
2022/05/11 07:38:54;;;;;;;0.40;0.30;;;;;;;24.60;66.93;100517.72;5072575;28;20062;-63
2022/05/11 07:41:19;;;;;;;0.93;0.20;;;;;;;24.59;67.47;100518.78;5072403;28;20110;-64
2022/05/11 07:43:45;;;;;;;0.20;0.20;;;;;;;24.60;67.24;100517.72;5073104;28;20039;-63
2022/05/11 07:46:11;;;;;;;0.30;0.10;;;;;;;24.59;67.63;100505.03;5072492;28;20190;-64
2022/05/11 07:48:37;;;;;;;0.20;0.20;;;;;;;24.62;67.69;100509.25;5073868;28;20375;-63
2022/05/11 07:51:03;;;;;;;0.35;0.20;;;;;;;24.62;67.65;100509.25;5072446;28;20373;-64
2022/05/11 07:53:28;;;;;;;0.40;0.30;;;;;;;24.63;67.64;100505.44;5072204;28;20036;-64
2022/05/11 08:01:21;;;;;;;0.95;0.10;;;;;;;24.59;67.60;100511.38;5072496;28;20039;-64
2022/05/11 08:03:47;;;;;;;0.10;0.10;;;;;;;24.60;68.07;100499.31;5072292;28;20323;-63
2022/05/11 08:06:12;;;;;;;0.80;0.30;;;;;;;24.63;67.15;100500.78;5072342;28;20048;-63
2022/05/11 08:08:37;;;;;;;0.20;0.17;;;;;;;24.63;67.62;100499.94;5072148;28;20426;-63
2022/05/11 08:11:03;;;;;;;0.20;0.10;;;;;;;24.63;67.79;100506.28;5072235;28;20032;-64
2022/05/11 08:13:30;;;;;;;1.02;0.25;;;;;;;24.63;67.77;100495.28;5073367;28;20244;-63
2022/05/11 08:15:55;;;;;;;0.35;0.17;;;;;;;24.63;67.70;100486.19;5072086;28;20024;-63
2022/05/11 08:18:21;;;;;;;0.10;0.10;;;;;;;24.62;67.75;100488.09;5072052;28;20085;-64
2022/05/11 08:20:46;;;;;;;0.98;0.20;;;;;;;24.62;67.73;100488.09;5072136;28;20028;-64
2022/05/11 08:23:13;;;;;;;0.25;0.20;;;;;;;24.64;67.71;100502.47;5073199;28;20068;-63
2022/05/11 08:25:39;;;;;;;0.20;0.10;;;;;;;24.67;67.79;100502.00;5075956;28;20450;-63
2022/05/11 08:28:14;;;;;;;0.30;0.20;;;;;;;24.66;67.77;100500.34;5078598;28;20052;-64
2022/05/11 08:33:28;;;;;;;0.82;0.20;;;;;;;24.66;68.04;100494.84;5075931;28;20498;-64
2022/05/11 08:36:00;;;;;;;0.70;0.20;;;;;;;24.66;67.86;100483.84;5074437;28;20476;-63
2022/05/11 08:38:29;;;;;;;0.30;0.20;;;;;;;24.66;67.82;100494.84;5075517;28;20032;-63
2022/05/11 08:41:00;;;;;;;0.55;0.20;;;;;;;24.67;67.43;100491.03;5075726;28;20062;-64
2022/05/11 08:43:29;;;;;;;0.88;0.20;;;;;;;24.66;67.72;100494.84;5076135;28;20122;-64
2022/05/11 08:46:03;;;;;;;0.60;0.20;;;;;;;24.68;67.86;100505.59;5075624;28;20460;-63
2022/05/11 08:48:39;;;;;;;1.20;0.30;;;;;;;24.65;67.41;100493.16;5075495;28;20041;-63
2022/05/11 08:51:09;;;;;;;0.70;0.25;;;;;;;24.65;67.50;100495.91;5075489;28;20146;-64
2022/05/11 08:53:41;;;;;;;1.00;0.20;;;;;;;24.66;67.71;100489.34;5075335;28;20031;-63
2022/05/11 08:56:13;;;;;;;0.95;0.10;;;;;;;24.65;67.55;100493.16;5075421;28;20029;-63
2022/05/11 08:58:48;;;;;;;0.40;0.20;;;;;;;24.68;67.84;100506.44;5075295;28;20031;-64
2022/05/11 09:01:29;;;;;;;0.25;0.20;;;;;;;24.66;67.04;100511.31;5076173;28;20056;-64
2022/05/11 09:03:56;;;;;;;0.75;0.20;;;;;;;24.65;67.44;100512.41;5075273;28;20017;-63
2022/05/11 09:06:27;;;;;;;0.30;0.30;;;;;;;24.66;67.93;100508.59;5076829;28;20016;-63
2022/05/11 09:08:58;;;;;;;0.65;0.20;;;;;;;24.67;67.16;100503.94;5075283;28;20031;-64
2022/05/11 09:11:53;;;;;;;0.68;0.20;;;;;;;24.65;67.88;100498.66;5074936;28;20028;-64
2022/05/11 09:14:29;;;;;;;0.10;0.10;;;;;;;24.67;68.04;100485.53;5073006;28;20139;-63
2022/05/11 09:16:54;;;;;;;0.30;0.20;;;;;;;24.67;67.19;100496.53;5075675;28;20372;-64
2022/05/11 09:19:26;;;;;;;0.95;0.43;;;;;;;24.69;67.21;100501.78;5074896;28;20020;-63
2022/05/11 09:22:14;;;;;;;0.10;0.10;;;;;;;24.69;67.00;100499.91;5075024;28;20024;-63
2022/05/11 09:24:53;;;;;;;0.55;0.30;;;;;;;24.70;67.73;100496.09;5074694;28;20070;-64
2022/05/11 09:27:24;;;;;;;0.10;0.10;;;;;;;24.70;67.86;100501.59;5073321;28;20025;-63
2022/05/11 09:30:15;;;;;;;0.20;0.20;;;;;;;24.68;67.19;100509.19;5074843;28;20036;-63
2022/05/11 09:32:44;;;;;;;0.38;0.20;;;;;;;24.71;67.90;100513.44;5075152;28;20387;-64
2022/05/11 09:35:22;;;;;;;0.30;0.30;;;;;;;24.68;67.75;100495.44;5070327;28;20051;-64
2022/05/11 09:37:58;;;;;;;0.17;0.17;;;;;;;24.71;67.67;100503.28;5067195;28;20392;-63
2022/05/11 09:40:24;;;;;;;0.50;0.30;;;;;;;24.72;67.49;100502.22;5067873;28;20055;-64
2022/05/11 09:43:03;;;;;;;0.80;0.47;;;;;;;24.70;67.78;100490.59;5073880;28;20070;-64
2022/05/11 09:45:40;;;;;;;0.85;0.30;;;;;;;24.70;67.98;100496.09;5072734;28;20069;-63
2022/05/11 09:48:27;;;;;;;0.15;0.15;;;;;;;24.72;67.24;100477.47;5075668;28;20057;-63
2022/05/11 09:50:55;;;;;;;0.25;0.17;;;;;;;24.72;67.82;100468.38;5065684;28;20032;-63
2022/05/11 09:53:37;;;;;;;0.55;0.10;;;;;;;24.73;67.54;100464.56;5073910;28;20098;-62
2022/05/11 09:56:28;;;;;;;0.93;0.20;;;;;;;24.72;67.53;100460.16;5072946;28;20032;-63
2022/05/11 09:58:54;;;;;;;0.40;0.20;;;;;;;24.72;67.12;100466.47;5074257;28;20032;-64
2022/05/11 10:01:28;;;;;;;0.30;0.20;;;;;;;24.71;67.29;100464.81;5074115;28;20025;-64
2022/05/11 10:04:03;;;;;;;0.20;0.10;;;;;;;24.71;67.02;100462.06;5070781;28;20593;-63
2022/05/11 10:06:34;;;;;;;0.88;0.10;;;;;;;24.73;67.10;100481.91;5072635;28;20024;-64
2022/05/11 10:09:01;;;;;;;0.73;0.10;;;;;;;24.72;67.29;100471.97;5074938;28;20047;-64
2022/05/11 10:11:39;;;;;;;0.10;0.10;;;;;;;24.72;67.14;100438.16;5072603;28;20392;-63
2022/05/11 10:23:09;;;;;;;0.22;0.10;;;;;;;24.73;67.26;100479.16;4972863;28;20489;-64
2022/05/11 10:25:41;;;;;;;0.20;0.20;;;;;;;24.74;67.62;100485.50;4972996;28;20061;-63
2022/05/11 10:28:29;;;;;;;0.57;0.10;;;;;;;24.73;67.83;100473.66;4972646;28;20050;-63
2022/05/11 10:31:12;;;;;;;0.88;0.10;;;;;;;24.74;67.12;100471.75;4974094;28;20039;-63
2022/05/11 10:33:51;;;;;;;0.47;0.10;;;;;;;24.74;66.93;100469.84;4972528;28;20035;-63
2022/05/11 10:36:25;;;;;;;0.17;0.10;;;;;;;24.73;67.31;100468.16;4972196;28;20058;-63
2022/05/11 10:39:09;;;;;;;0.82;0.10;;;;;;;24.73;67.72;100451.66;4973140;28;20031;-63
2022/05/11 10:41:46;;;;;;;0.40;0.25;;;;;;;24.73;67.25;100454.41;4956115;28;20121;-63
2022/05/11 10:44:45;;;;;;;0.40;0.10;;;;;;;24.73;67.77;100457.16;4972296;28;20066;-63
2022/05/11 10:47:38;;;;;;;0.47;0.10;;;;;;;24.72;67.77;100460.97;4955390;28;20023;-63
2022/05/11 10:50:04;;;;;;;0.00;0.00;;;;;;;24.72;67.81;100444.50;4972343;28;20045;-63
2022/05/11 10:52:37;;;;;;;0.43;0.10;;;;;;;24.73;67.95;100451.66;4956086;28;20022;-63
2022/05/11 10:55:08;;;;;;;0.50;0.10;;;;;;;24.75;67.38;100452.28;4972879;28;20039;-63
2022/05/11 10:57:43;;;;;;;0.28;0.20;;;;;;;24.76;67.64;100451.22;5064537;28;20064;-63
2022/05/11 11:00:24;;;;;;;1.02;0.20;;;;;;;24.76;66.93;100445.72;5073187;28;20106;-63
2022/05/11 11:03:19;;;;;;;0.35;0.28;;;;;;;24.75;66.99;100454.19;5073076;28;20036;-63
2022/05/11 11:09:06;;;;;;;1.23;0.20;;;;;;;24.75;67.30;100438.53;5011208;28;20041;-63
2022/05/11 11:12:03;;;;;;;0.68;0.22;;;;;;;24.76;67.09;100437.47;5010595;28;20084;-63
2022/05/11 11:14:36;;;;;;;0.10;0.10;;;;;;;24.75;67.75;100427.53;4993049;28;20065;-61
2022/05/11 11:17:05;;;;;;;0.32;0.20;;;;;;;24.76;66.90;100433.88;4998388;28;20050;-63
2022/05/11 11:19:32;;;;;;;0.20;0.20;;;;;;;24.77;67.36;100430.91;4999250;28;20170;-63
2022/05/11 11:22:00;;;;;;;0.40;0.25;;;;;;;24.74;67.04;100428.63;4999875;28;20125;-63
2022/05/11 11:24:27;;;;;;;0.30;0.22;;;;;;;24.77;67.60;100441.06;4984267;28;20041;-64
2022/05/11 11:26:58;;;;;;;0.45;0.20;;;;;;;24.78;67.82;100435.34;4999299;28;20030;-63
2022/05/11 11:29:32;;;;;;;0.47;0.40;;;;;;;24.76;67.18;100434.72;4998979;28;20046;-64
2022/05/11 11:32:00;;;;;;;0.43;0.20;;;;;;;24.78;67.27;100440.00;4985369;28;20033;-63
2022/05/11 11:34:31;;;;;;;0.70;0.30;;;;;;;24.77;67.48;100435.56;4998894;28;20108;-63
2022/05/11 11:36:59;;;;;;;0.88;0.20;;;;;;;24.79;67.48;100444.44;4999993;28;20046;-63
2022/05/11 11:39:48;;;;;;;1.13;0.22;;;;;;;24.79;67.44;100434.28;4998766;28;20084;-63
2022/05/11 11:42:31;;;;;;;0.40;0.30;;;;;;;24.79;66.94;100434.28;5016730;28;20056;-64
2022/05/11 11:44:56;;;;;;;0.10;0.10;;;;;;;24.77;67.50;100430.06;5060811;28;20020;-63
2022/05/11 11:47:27;;;;;;;0.38;0.20;;;;;;;24.77;67.39;100419.06;5060297;28;20026;-64
2022/05/11 11:49:55;;;;;;;0.35;0.20;;;;;;;24.79;67.19;100422.44;5060694;28;20024;-63
2022/05/11 11:52:35;;;;;;;0.68;0.38;;;;;;;24.78;67.49;100410.59;5061079;28;20027;-63
2022/05/11 11:55:01;;;;;;;0.40;0.20;;;;;;;24.79;67.59;100416.94;5063582;28;20036;-62
2022/05/11 11:57:31;;;;;;;1.48;0.28;;;;;;;24.78;67.19;100421.59;5063882;28;20033;-62
2022/05/11 12:00:25;;;;;;;0.20;0.20;;;;;;;24.81;67.03;100420.31;5064398;28;20025;-63
2022/05/11 12:02:51;;;;;;;0.40;0.22;;;;;;;24.78;67.30;100421.59;5032512;28;20427;-62
2022/05/11 12:05:39;;;;;;;0.20;0.20;;;;;;;24.80;67.53;100413.13;5022795;28;20030;-63
2022/05/11 12:16:56;;;;;;;0.10;0.10;;;;;;;24.80;67.20;100402.13;5032403;28;20036;-62
2022/05/11 12:19:24;;;;;;;0.35;0.25;;;;;;;24.80;67.77;100402.97;5032765;28;20038;-62
2022/05/11 12:22:18;;;;;;;0.32;0.30;;;;;;;24.81;67.65;100410.16;5033474;28;20112;-62